sensor_id;sensor_type;location;lat;lon;timestamp;P1;durP1;ratioP1;P2;durP2;ratioP2
21862;SDS011;11096;51.338;12.524;2023-08-07T00:01:28;3.30;;;2.40;;
21862;SDS011;11096;51.338;12.524;2023-08-07T00:03:53;6.43;;;2.60;;
21862;SDS011;11096;51.338;12.524;2023-08-07T00:06:19;5.32;;;2.38;;
21862;SDS011;11096;51.338;12.524;2023-08-07T00:08:44;3.60;;;2.53;;
21862;SDS011;11096;51.338;12.524;2023-08-07T00:11:10;5.75;;;2.53;;
21862;SDS011;11096;51.338;12.524;2023-08-07T00:13:35;2.50;;;2.30;;
21862;SDS011;11096;51.338;12.524;2023-08-07T00:16:01;4.80;;;2.50;;
21862;SDS011;11096;51.338;12.524;2023-08-07T00:18:27;2.60;;;2.40;;
21862;SDS011;11096;51.338;12.524;2023-08-07T00:20:53;2.95;;;2.55;;
21862;SDS011;11096;51.338;12.524;2023-08-07T00:23:18;4.47;;;3.17;;
21862;SDS011;11096;51.338;12.524;2023-08-07T00:25:44;5.40;;;2.70;;
21862;SDS011;11096;51.338;12.524;2023-08-07T00:28:09;3.67;;;2.80;;
21862;SDS011;11096;51.338;12.524;2023-08-07T00:30:35;7.93;;;2.78;;
21862;SDS011;11096;51.338;12.524;2023-08-07T00:33:00;2.75;;;2.45;;
21862;SDS011;11096;51.338;12.524;2023-08-07T00:35:25;3.65;;;2.58;;
21862;SDS011;11096;51.338;12.524;2023-08-07T00:37:51;3.70;;;2.67;;
21862;SDS011;11096;51.338;12.524;2023-08-07T00:40:16;2.88;;;2.35;;
21862;SDS011;11096;51.338;12.524;2023-08-07T00:42:42;3.13;;;2.45;;
21862;SDS011;11096;51.338;12.524;2023-08-07T00:45:07;5.85;;;2.55;;
21862;SDS011;11096;51.338;12.524;2023-08-07T00:47:33;4.68;;;2.67;;
21862;SDS011;11096;51.338;12.524;2023-08-07T00:49:58;3.65;;;2.20;;
21862;SDS011;11096;51.338;12.524;2023-08-07T00:52:24;4.45;;;3.03;;
21862;SDS011;11096;51.338;12.524;2023-08-07T00:54:50;4.88;;;2.83;;
21862;SDS011;11096;51.338;12.524;2023-08-07T00:57:16;3.65;;;2.33;;
21862;SDS011;11096;51.338;12.524;2023-08-07T00:59:42;4.68;;;2.75;;
21862;SDS011;11096;51.338;12.524;2023-08-07T01:02:08;3.00;;;2.20;;
21862;SDS011;11096;51.338;12.524;2023-08-07T01:04:34;2.97;;;2.20;;
21862;SDS011;11096;51.338;12.524;2023-08-07T01:06:59;4.55;;;2.47;;
21862;SDS011;11096;51.338;12.524;2023-08-07T01:09:25;3.17;;;2.72;;
21862;SDS011;11096;51.338;12.524;2023-08-07T01:14:37;2.97;;;2.20;;
21862;SDS011;11096;51.338;12.524;2023-08-07T01:17:16;3.50;;;2.83;;
21862;SDS011;11096;51.338;12.524;2023-08-07T01:19:44;6.40;;;3.40;;
21862;SDS011;11096;51.338;12.524;2023-08-07T01:22:10;4.00;;;2.90;;
21862;SDS011;11096;51.338;12.524;2023-08-07T01:24:37;5.07;;;4.57;;
21862;SDS011;11096;51.338;12.524;2023-08-07T01:35:25;6.15;;;4.43;;
21862;SDS011;11096;51.338;12.524;2023-08-07T01:37:55;5.63;;;4.85;;
21862;SDS011;11096;51.338;12.524;2023-08-07T01:40:22;9.43;;;4.85;;
21862;SDS011;11096;51.338;12.524;2023-08-07T01:42:48;6.63;;;5.00;;
21862;SDS011;11096;51.338;12.524;2023-08-07T01:45:21;6.60;;;5.00;;
21862;SDS011;11096;51.338;12.524;2023-08-07T01:47:47;5.97;;;5.35;;
21862;SDS011;11096;51.338;12.524;2023-08-07T01:50:13;7.28;;;5.30;;
21862;SDS011;11096;51.338;12.524;2023-08-07T01:52:38;8.50;;;5.32;;
21862;SDS011;11096;51.338;12.524;2023-08-07T01:55:03;8.02;;;5.97;;
21862;SDS011;11096;51.338;12.524;2023-08-07T01:57:29;8.73;;;6.70;;
21862;SDS011;11096;51.338;12.524;2023-08-07T01:59:56;8.35;;;5.57;;
21862;SDS011;11096;51.338;12.524;2023-08-07T02:02:21;9.32;;;6.50;;
21862;SDS011;11096;51.338;12.524;2023-08-07T02:04:46;9.82;;;6.00;;
21862;SDS011;11096;51.338;12.524;2023-08-07T02:07:12;12.20;;;6.55;;
21862;SDS011;11096;51.338;12.524;2023-08-07T02:09:37;9.10;;;6.68;;
21862;SDS011;11096;51.338;12.524;2023-08-07T02:12:03;13.90;;;6.68;;
21862;SDS011;11096;51.338;12.524;2023-08-07T02:14:28;10.15;;;6.45;;
21862;SDS011;11096;51.338;12.524;2023-08-07T02:16:54;9.13;;;6.65;;
21862;SDS011;11096;51.338;12.524;2023-08-07T02:19:19;11.00;;;7.32;;
21862;SDS011;11096;51.338;12.524;2023-08-07T02:21:45;11.77;;;6.60;;
21862;SDS011;11096;51.338;12.524;2023-08-07T02:24:10;8.80;;;5.60;;
21862;SDS011;11096;51.338;12.524;2023-08-07T02:26:35;7.47;;;5.60;;
21862;SDS011;11096;51.338;12.524;2023-08-07T02:29:01;7.07;;;5.60;;
21862;SDS011;11096;51.338;12.524;2023-08-07T02:31:27;7.22;;;5.13;;
21862;SDS011;11096;51.338;12.524;2023-08-07T02:33:53;12.30;;;6.15;;
21862;SDS011;11096;51.338;12.524;2023-08-07T02:36:18;8.30;;;5.50;;
21862;SDS011;11096;51.338;12.524;2023-08-07T02:38:44;7.20;;;5.40;;
21862;SDS011;11096;51.338;12.524;2023-08-07T02:41:09;7.80;;;5.57;;
21862;SDS011;11096;51.338;12.524;2023-08-07T02:43:34;6.45;;;5.45;;
21862;SDS011;11096;51.338;12.524;2023-08-07T02:46:00;8.05;;;5.70;;
21862;SDS011;11096;51.338;12.524;2023-08-07T02:48:25;9.45;;;5.95;;
21862;SDS011;11096;51.338;12.524;2023-08-07T02:50:51;8.68;;;6.35;;
21862;SDS011;11096;51.338;12.524;2023-08-07T02:53:19;13.25;;;6.45;;
21862;SDS011;11096;51.338;12.524;2023-08-07T02:55:44;7.65;;;5.80;;
21862;SDS011;11096;51.338;12.524;2023-08-07T02:58:09;9.70;;;6.07;;
21862;SDS011;11096;51.338;12.524;2023-08-07T03:00:35;9.82;;;6.25;;
21862;SDS011;11096;51.338;12.524;2023-08-07T03:03:00;6.57;;;5.25;;
21862;SDS011;11096;51.338;12.524;2023-08-07T03:05:26;10.10;;;5.90;;
21862;SDS011;11096;51.338;12.524;2023-08-07T03:07:51;8.75;;;6.10;;
21862;SDS011;11096;51.338;12.524;2023-08-07T03:10:16;10.20;;;6.00;;
21862;SDS011;11096;51.338;12.524;2023-08-07T03:12:42;7.43;;;6.00;;
21862;SDS011;11096;51.338;12.524;2023-08-07T03:15:07;8.70;;;5.38;;
21862;SDS011;11096;51.338;12.524;2023-08-07T03:17:33;7.47;;;5.53;;
21862;SDS011;11096;51.338;12.524;2023-08-07T03:19:58;7.78;;;5.47;;
21862;SDS011;11096;51.338;12.524;2023-08-07T03:22:24;6.88;;;5.05;;
21862;SDS011;11096;51.338;12.524;2023-08-07T03:24:49;9.90;;;5.60;;
21862;SDS011;11096;51.338;12.524;2023-08-07T03:27:15;7.55;;;5.30;;
21862;SDS011;11096;51.338;12.524;2023-08-07T03:29:40;8.63;;;5.00;;
21862;SDS011;11096;51.338;12.524;2023-08-07T03:32:06;5.95;;;5.07;;
21862;SDS011;11096;51.338;12.524;2023-08-07T03:34:31;6.22;;;4.47;;
21862;SDS011;11096;51.338;12.524;2023-08-07T03:36:57;6.65;;;4.63;;
21862;SDS011;11096;51.338;12.524;2023-08-07T03:39:24;7.22;;;3.95;;
21862;SDS011;11096;51.338;12.524;2023-08-07T03:41:50;4.30;;;3.30;;
21862;SDS011;11096;51.338;12.524;2023-08-07T03:44:16;5.95;;;3.90;;
21862;SDS011;11096;51.338;12.524;2023-08-07T03:46:41;6.45;;;4.20;;
21862;SDS011;11096;51.338;12.524;2023-08-07T03:49:07;4.90;;;3.78;;
21862;SDS011;11096;51.338;12.524;2023-08-07T03:51:32;9.20;;;5.35;;
21862;SDS011;11096;51.338;12.524;2023-08-07T03:53:57;7.03;;;4.53;;
21862;SDS011;11096;51.338;12.524;2023-08-07T03:56:23;4.82;;;3.97;;
21862;SDS011;11096;51.338;12.524;2023-08-07T03:58:48;8.77;;;4.30;;
21862;SDS011;11096;51.338;12.524;2023-08-07T04:01:15;4.65;;;3.75;;
21862;SDS011;11096;51.338;12.524;2023-08-07T04:03:41;4.57;;;3.92;;
21862;SDS011;11096;51.338;12.524;2023-08-07T04:06:06;8.63;;;5.20;;
21862;SDS011;11096;51.338;12.524;2023-08-07T04:08:31;4.60;;;3.67;;
21862;SDS011;11096;51.338;12.524;2023-08-07T04:10:58;5.75;;;3.90;;
21862;SDS011;11096;51.338;12.524;2023-08-07T04:13:27;7.75;;;4.80;;
21862;SDS011;11096;51.338;12.524;2023-08-07T04:15:53;5.63;;;4.07;;
21862;SDS011;11096;51.338;12.524;2023-08-07T04:18:18;6.57;;;4.50;;
21862;SDS011;11096;51.338;12.524;2023-08-07T04:20:50;8.32;;;4.38;;
21862;SDS011;11096;51.338;12.524;2023-08-07T04:23:17;8.13;;;4.32;;
21862;SDS011;11096;51.338;12.524;2023-08-07T04:25:43;4.63;;;4.22;;
21862;SDS011;11096;51.338;12.524;2023-08-07T04:28:08;6.63;;;3.78;;
21862;SDS011;11096;51.338;12.524;2023-08-07T04:30:34;11.18;;;3.83;;
21862;SDS011;11096;51.338;12.524;2023-08-07T04:32:59;4.35;;;3.10;;
21862;SDS011;11096;51.338;12.524;2023-08-07T04:35:24;5.30;;;3.63;;
21862;SDS011;11096;51.338;12.524;2023-08-07T04:37:50;7.07;;;3.78;;
21862;SDS011;11096;51.338;12.524;2023-08-07T04:40:15;7.45;;;3.20;;
21862;SDS011;11096;51.338;12.524;2023-08-07T04:42:41;6.68;;;3.00;;
21862;SDS011;11096;51.338;12.524;2023-08-07T04:45:06;5.38;;;3.05;;
21862;SDS011;11096;51.338;12.524;2023-08-07T04:47:32;3.90;;;2.72;;
21862;SDS011;11096;51.338;12.524;2023-08-07T04:49:57;4.80;;;2.83;;
21862;SDS011;11096;51.338;12.524;2023-08-07T04:52:23;3.42;;;2.60;;
21862;SDS011;11096;51.338;12.524;2023-08-07T04:54:48;5.00;;;2.70;;
21862;SDS011;11096;51.338;12.524;2023-08-07T04:57:13;4.50;;;2.33;;
21862;SDS011;11096;51.338;12.524;2023-08-07T04:59:39;2.90;;;2.20;;
21862;SDS011;11096;51.338;12.524;2023-08-07T05:02:04;2.17;;;1.80;;
21862;SDS011;11096;51.338;12.524;2023-08-07T05:04:30;5.00;;;1.65;;
21862;SDS011;11096;51.338;12.524;2023-08-07T05:06:55;4.75;;;2.13;;
21862;SDS011;11096;51.338;12.524;2023-08-07T05:09:21;7.82;;;2.25;;
21862;SDS011;11096;51.338;12.524;2023-08-07T05:11:46;3.95;;;2.83;;
21862;SDS011;11096;51.338;12.524;2023-08-07T05:14:11;3.35;;;2.17;;
21862;SDS011;11096;51.338;12.524;2023-08-07T05:16:37;6.82;;;2.03;;
21862;SDS011;11096;51.338;12.524;2023-08-07T05:19:02;5.43;;;1.90;;
21862;SDS011;11096;51.338;12.524;2023-08-07T05:21:28;2.88;;;1.50;;
21862;SDS011;11096;51.338;12.524;2023-08-07T05:23:53;6.47;;;1.92;;
21862;SDS011;11096;51.338;12.524;2023-08-07T05:26:20;3.90;;;1.55;;
21862;SDS011;11096;51.338;12.524;2023-08-07T05:28:46;4.00;;;1.40;;
21862;SDS011;11096;51.338;12.524;2023-08-07T05:31:11;1.40;;;1.30;;
21862;SDS011;11096;51.338;12.524;2023-08-07T05:33:37;3.63;;;1.45;;
21862;SDS011;11096;51.338;12.524;2023-08-07T05:36:02;1.95;;;1.25;;
21862;SDS011;11096;51.338;12.524;2023-08-07T05:38:28;3.58;;;1.60;;
21862;SDS011;11096;51.338;12.524;2023-08-07T05:40:53;2.47;;;1.50;;
21862;SDS011;11096;51.338;12.524;2023-08-07T05:43:18;2.05;;;1.52;;
21862;SDS011;11096;51.338;12.524;2023-08-07T05:45:44;3.28;;;1.63;;
21862;SDS011;11096;51.338;12.524;2023-08-07T05:48:11;3.45;;;1.40;;
21862;SDS011;11096;51.338;12.524;2023-08-07T05:50:37;1.27;;;1.17;;
21862;SDS011;11096;51.338;12.524;2023-08-07T05:53:02;3.13;;;1.23;;
21862;SDS011;11096;51.338;12.524;2023-08-07T05:55:28;9.80;;;1.70;;
21862;SDS011;11096;51.338;12.524;2023-08-07T05:57:53;4.07;;;1.77;;
21862;SDS011;11096;51.338;12.524;2023-08-07T06:00:18;3.20;;;1.40;;
21862;SDS011;11096;51.338;12.524;2023-08-07T06:02:44;2.70;;;1.33;;
21862;SDS011;11096;51.338;12.524;2023-08-07T06:05:10;5.15;;;1.50;;
21862;SDS011;11096;51.338;12.524;2023-08-07T06:07:38;2.38;;;1.40;;
21862;SDS011;11096;51.338;12.524;2023-08-07T06:10:04;2.22;;;1.27;;
21862;SDS011;11096;51.338;12.524;2023-08-07T06:12:30;2.05;;;1.67;;
21862;SDS011;11096;51.338;12.524;2023-08-07T06:14:55;2.17;;;1.38;;
21862;SDS011;11096;51.338;12.524;2023-08-07T06:17:21;3.03;;;1.40;;
21862;SDS011;11096;51.338;12.524;2023-08-07T06:19:46;1.63;;;1.30;;
21862;SDS011;11096;51.338;12.524;2023-08-07T06:22:12;3.17;;;1.30;;
21862;SDS011;11096;51.338;12.524;2023-08-07T06:24:37;2.38;;;1.40;;
21862;SDS011;11096;51.338;12.524;2023-08-07T06:27:02;2.25;;;1.45;;
21862;SDS011;11096;51.338;12.524;2023-08-07T06:29:28;2.05;;;1.40;;
21862;SDS011;11096;51.338;12.524;2023-08-07T06:31:53;2.20;;;1.45;;
21862;SDS011;11096;51.338;12.524;2023-08-07T06:34:19;2.03;;;1.60;;
21862;SDS011;11096;51.338;12.524;2023-08-07T06:36:44;3.13;;;1.50;;
21862;SDS011;11096;51.338;12.524;2023-08-07T06:39:09;5.35;;;1.40;;
21862;SDS011;11096;51.338;12.524;2023-08-07T06:41:35;2.42;;;1.35;;
21862;SDS011;11096;51.338;12.524;2023-08-07T06:44:01;4.53;;;1.98;;
21862;SDS011;11096;51.338;12.524;2023-08-07T06:46:26;3.00;;;1.60;;
21862;SDS011;11096;51.338;12.524;2023-08-07T06:48:53;5.35;;;1.63;;
21862;SDS011;11096;51.338;12.524;2023-08-07T06:51:18;5.00;;;1.50;;
21862;SDS011;11096;51.338;12.524;2023-08-07T06:53:44;3.13;;;1.50;;
21862;SDS011;11096;51.338;12.524;2023-08-07T06:56:09;2.88;;;1.30;;
21862;SDS011;11096;51.338;12.524;2023-08-07T06:58:34;5.13;;;1.60;;
21862;SDS011;11096;51.338;12.524;2023-08-07T07:01:00;2.15;;;1.45;;
21862;SDS011;11096;51.338;12.524;2023-08-07T07:03:25;1.38;;;1.20;;
21862;SDS011;11096;51.338;12.524;2023-08-07T07:05:51;4.50;;;1.40;;
21862;SDS011;11096;51.338;12.524;2023-08-07T07:08:16;5.75;;;1.45;;
21862;SDS011;11096;51.338;12.524;2023-08-07T07:10:41;5.95;;;1.75;;
21862;SDS011;11096;51.338;12.524;2023-08-07T07:13:07;1.70;;;0.90;;
21862;SDS011;11096;51.338;12.524;2023-08-07T07:15:34;2.20;;;1.20;;
21862;SDS011;11096;51.338;12.524;2023-08-07T07:18:00;3.47;;;1.05;;
21862;SDS011;11096;51.338;12.524;2023-08-07T07:20:26;3.72;;;1.23;;
21862;SDS011;11096;51.338;12.524;2023-08-07T07:22:52;1.27;;;0.85;;
21862;SDS011;11096;51.338;12.524;2023-08-07T07:25:17;1.63;;;0.93;;
21862;SDS011;11096;51.338;12.524;2023-08-07T07:27:43;2.50;;;1.10;;
21862;SDS011;11096;51.338;12.524;2023-08-07T07:30:08;3.35;;;1.23;;
21862;SDS011;11096;51.338;12.524;2023-08-07T07:32:34;2.10;;;1.00;;
21862;SDS011;11096;51.338;12.524;2023-08-07T07:34:59;1.95;;;0.80;;
21862;SDS011;11096;51.338;12.524;2023-08-07T07:37:25;4.50;;;0.95;;
21862;SDS011;11096;51.338;12.524;2023-08-07T07:39:50;2.60;;;0.90;;
21862;SDS011;11096;51.338;12.524;2023-08-07T07:42:16;1.08;;;0.70;;
21862;SDS011;11096;51.338;12.524;2023-08-07T07:44:41;2.58;;;1.00;;
21862;SDS011;11096;51.338;12.524;2023-08-07T07:47:07;2.65;;;0.93;;
21862;SDS011;11096;51.338;12.524;2023-08-07T07:49:33;2.80;;;0.90;;
21862;SDS011;11096;51.338;12.524;2023-08-07T07:51:59;2.88;;;0.80;;
21862;SDS011;11096;51.338;12.524;2023-08-07T07:54:24;2.13;;;0.80;;
21862;SDS011;11096;51.338;12.524;2023-08-07T07:56:50;0.60;;;0.60;;
21862;SDS011;11096;51.338;12.524;2023-08-07T07:59:15;0.88;;;0.73;;
21862;SDS011;11096;51.338;12.524;2023-08-07T08:01:41;2.17;;;1.02;;
21862;SDS011;11096;51.338;12.524;2023-08-07T08:04:06;5.78;;;1.05;;
21862;SDS011;11096;51.338;12.524;2023-08-07T08:06:32;2.40;;;1.00;;
21862;SDS011;11096;51.338;12.524;2023-08-07T08:08:57;2.67;;;0.90;;
21862;SDS011;11096;51.338;12.524;2023-08-07T08:11:24;0.60;;;0.60;;
21862;SDS011;11096;51.338;12.524;2023-08-07T08:13:49;2.03;;;0.90;;
21862;SDS011;11096;51.338;12.524;2023-08-07T08:16:15;1.10;;;0.90;;
21862;SDS011;11096;51.338;12.524;2023-08-07T08:18:40;4.10;;;0.88;;
21862;SDS011;11096;51.338;12.524;2023-08-07T08:21:06;4.40;;;0.70;;
21862;SDS011;11096;51.338;12.524;2023-08-07T08:23:31;3.67;;;0.80;;
21862;SDS011;11096;51.338;12.524;2023-08-07T08:25:57;1.10;;;0.68;;
21862;SDS011;11096;51.338;12.524;2023-08-07T08:28:22;0.82;;;0.80;;
21862;SDS011;11096;51.338;12.524;2023-08-07T08:30:48;2.30;;;0.82;;
21862;SDS011;11096;51.338;12.524;2023-08-07T08:33:13;1.90;;;0.68;;
21862;SDS011;11096;51.338;12.524;2023-08-07T08:35:39;4.20;;;0.70;;
21862;SDS011;11096;51.338;12.524;2023-08-07T08:38:05;0.82;;;0.60;;
21862;SDS011;11096;51.338;12.524;2023-08-07T08:40:31;2.22;;;0.80;;
21862;SDS011;11096;51.338;12.524;2023-08-07T08:42:59;4.45;;;0.80;;
21862;SDS011;11096;51.338;12.524;2023-08-07T08:45:26;0.77;;;0.60;;
21862;SDS011;11096;51.338;12.524;2023-08-07T08:47:54;2.03;;;0.60;;
21862;SDS011;11096;51.338;12.524;2023-08-07T08:50:24;1.73;;;0.88;;
21862;SDS011;11096;51.338;12.524;2023-08-07T08:52:51;2.10;;;1.48;;
21862;SDS011;11096;51.338;12.524;2023-08-07T08:55:19;1.10;;;0.80;;
21862;SDS011;11096;51.338;12.524;2023-08-07T08:57:46;3.78;;;0.80;;
21862;SDS011;11096;51.338;12.524;2023-08-07T09:00:13;2.88;;;0.90;;
21862;SDS011;11096;51.338;12.524;2023-08-07T09:02:50;2.22;;;0.70;;
21862;SDS011;11096;51.338;12.524;2023-08-07T09:05:17;1.58;;;0.98;;
21862;SDS011;11096;51.338;12.524;2023-08-07T09:07:45;2.95;;;0.73;;
21862;SDS011;11096;51.338;12.524;2023-08-07T09:10:12;4.00;;;1.10;;
21862;SDS011;11096;51.338;12.524;2023-08-07T09:12:39;1.40;;;0.82;;
21862;SDS011;11096;51.338;12.524;2023-08-07T09:15:06;2.47;;;0.75;;
21862;SDS011;11096;51.338;12.524;2023-08-07T09:17:37;3.17;;;1.05;;
21862;SDS011;11096;51.338;12.524;2023-08-07T09:20:05;1.77;;;1.08;;
21862;SDS011;11096;51.338;12.524;2023-08-07T09:22:35;1.92;;;1.13;;
21862;SDS011;11096;51.338;12.524;2023-08-07T09:25:01;2.78;;;0.98;;
21862;SDS011;11096;51.338;12.524;2023-08-07T09:27:26;2.47;;;1.08;;
21862;SDS011;11096;51.338;12.524;2023-08-07T09:29:54;1.23;;;1.00;;
21862;SDS011;11096;51.338;12.524;2023-08-07T09:32:20;1.85;;;1.00;;
21862;SDS011;11096;51.338;12.524;2023-08-07T09:34:47;1.23;;;0.93;;
21862;SDS011;11096;51.338;12.524;2023-08-07T09:37:14;0.80;;;0.80;;
21862;SDS011;11096;51.338;12.524;2023-08-07T09:39:40;1.90;;;0.90;;
21862;SDS011;11096;51.338;12.524;2023-08-07T09:42:14;0.90;;;0.63;;
21862;SDS011;11096;51.338;12.524;2023-08-07T09:44:41;1.00;;;0.75;;
21862;SDS011;11096;51.338;12.524;2023-08-07T09:47:14;1.38;;;0.60;;
21862;SDS011;11096;51.338;12.524;2023-08-07T09:49:44;2.47;;;0.70;;
21862;SDS011;11096;51.338;12.524;2023-08-07T09:52:11;1.67;;;0.75;;
21862;SDS011;11096;51.338;12.524;2023-08-07T09:54:41;3.83;;;0.88;;
21862;SDS011;11096;51.338;12.524;2023-08-07T09:57:07;0.70;;;0.57;;
21862;SDS011;11096;51.338;12.524;2023-08-07T09:59:33;1.88;;;1.05;;
21862;SDS011;11096;51.338;12.524;2023-08-07T10:02:00;1.00;;;0.73;;
21862;SDS011;11096;51.338;12.524;2023-08-07T10:04:29;2.25;;;0.60;;
21862;SDS011;11096;51.338;12.524;2023-08-07T10:06:55;0.98;;;0.60;;
21862;SDS011;11096;51.338;12.524;2023-08-07T10:09:22;1.63;;;0.60;;
21862;SDS011;11096;51.338;12.524;2023-08-07T10:11:50;1.95;;;0.50;;
21862;SDS011;11096;51.338;12.524;2023-08-07T10:14:17;0.73;;;0.50;;
21862;SDS011;11096;51.338;12.524;2023-08-07T10:16:43;3.42;;;0.50;;
21862;SDS011;11096;51.338;12.524;2023-08-07T10:19:10;0.45;;;0.40;;
21862;SDS011;11096;51.338;12.524;2023-08-07T10:21:37;3.53;;;0.55;;
21862;SDS011;11096;51.338;12.524;2023-08-07T10:24:04;0.40;;;0.40;;
21862;SDS011;11096;51.338;12.524;2023-08-07T10:26:32;1.30;;;0.47;;
21862;SDS011;11096;51.338;12.524;2023-08-07T10:28:59;1.48;;;0.40;;
21862;SDS011;11096;51.338;12.524;2023-08-07T10:31:27;0.95;;;0.50;;
21862;SDS011;11096;51.338;12.524;2023-08-07T10:33:54;0.40;;;0.40;;
21862;SDS011;11096;51.338;12.524;2023-08-07T10:36:20;1.30;;;0.55;;
21862;SDS011;11096;51.338;12.524;2023-08-07T10:38:48;1.38;;;0.60;;
21862;SDS011;11096;51.338;12.524;2023-08-07T10:41:15;1.00;;;0.47;;
21862;SDS011;11096;51.338;12.524;2023-08-07T10:43:43;0.85;;;0.55;;
21862;SDS011;11096;51.338;12.524;2023-08-07T10:46:14;1.10;;;0.47;;
21862;SDS011;11096;51.338;12.524;2023-08-07T10:51:08;3.05;;;0.30;;
21862;SDS011;11096;51.338;12.524;2023-08-07T10:53:37;0.52;;;0.22;;
21862;SDS011;11096;51.338;12.524;2023-08-07T10:56:07;0.47;;;0.30;;
21862;SDS011;11096;51.338;12.524;2023-08-07T10:58:35;0.57;;;0.40;;
21862;SDS011;11096;51.338;12.524;2023-08-07T11:01:21;1.17;;;0.47;;
21862;SDS011;11096;51.338;12.524;2023-08-07T11:03:55;0.50;;;0.40;;
21862;SDS011;11096;51.338;12.524;2023-08-07T11:06:28;0.50;;;0.50;;
21862;SDS011;11096;51.338;12.524;2023-08-07T11:08:59;3.60;;;0.50;;
21862;SDS011;11096;51.338;12.524;2023-08-07T11:11:26;3.05;;;0.70;;
21862;SDS011;11096;51.338;12.524;2023-08-07T11:13:52;2.60;;;0.77;;
21862;SDS011;11096;51.338;12.524;2023-08-07T11:16:17;3.78;;;0.60;;
21862;SDS011;11096;51.338;12.524;2023-08-07T11:18:46;5.75;;;1.23;;
21862;SDS011;11096;51.338;12.524;2023-08-07T11:21:12;1.38;;;0.80;;
21862;SDS011;11096;51.338;12.524;2023-08-07T11:23:38;2.53;;;0.90;;
21862;SDS011;11096;51.338;12.524;2023-08-07T11:26:04;4.22;;;0.90;;
21862;SDS011;11096;51.338;12.524;2023-08-07T11:28:30;4.97;;;1.10;;
21862;SDS011;11096;51.338;12.524;2023-08-07T11:30:56;1.83;;;0.75;;
21862;SDS011;11096;51.338;12.524;2023-08-07T11:33:26;1.23;;;0.80;;
21862;SDS011;11096;51.338;12.524;2023-08-07T11:35:52;1.73;;;0.80;;
21862;SDS011;11096;51.338;12.524;2023-08-07T11:38:37;1.33;;;0.73;;
21862;SDS011;11096;51.338;12.524;2023-08-07T11:41:05;0.95;;;0.70;;
21862;SDS011;11096;51.338;12.524;2023-08-07T11:43:32;0.85;;;0.52;;
21862;SDS011;11096;51.338;12.524;2023-08-07T11:46:01;1.02;;;0.60;;
21862;SDS011;11096;51.338;12.524;2023-08-07T11:48:29;1.50;;;0.60;;
21862;SDS011;11096;51.338;12.524;2023-08-07T11:50:57;1.00;;;0.47;;
21862;SDS011;11096;51.338;12.524;2023-08-07T11:53:24;4.13;;;0.40;;
21862;SDS011;11096;51.338;12.524;2023-08-07T11:58:20;3.25;;;0.43;;
21862;SDS011;11096;51.338;12.524;2023-08-07T12:00:47;3.83;;;0.47;;
21862;SDS011;11096;51.338;12.524;2023-08-07T12:03:49;1.83;;;0.60;;
21862;SDS011;11096;51.338;12.524;2023-08-07T12:06:07;0.73;;;0.43;;
21862;SDS011;11096;51.338;12.524;2023-08-07T12:08:37;3.00;;;0.63;;
21862;SDS011;11096;51.338;12.524;2023-08-07T12:11:04;2.13;;;0.57;;
21862;SDS011;11096;51.338;12.524;2023-08-07T12:13:31;0.73;;;0.45;;
21862;SDS011;11096;51.338;12.524;2023-08-07T12:16:00;0.43;;;0.40;;
21862;SDS011;11096;51.338;12.524;2023-08-07T12:18:26;0.38;;;0.30;;
21862;SDS011;11096;51.338;12.524;2023-08-07T12:20:52;2.33;;;0.30;;
21862;SDS011;11096;51.338;12.524;2023-08-07T12:23:25;4.45;;;0.55;;
21862;SDS011;11096;51.338;12.524;2023-08-07T12:25:50;1.23;;;0.40;;
21862;SDS011;11096;51.338;12.524;2023-08-07T12:28:17;3.35;;;0.60;;
21862;SDS011;11096;51.338;12.524;2023-08-07T12:30:44;2.00;;;0.50;;
21862;SDS011;11096;51.338;12.524;2023-08-07T12:33:11;2.95;;;0.32;;
21862;SDS011;11096;51.338;12.524;2023-08-07T12:35:36;0.57;;;0.35;;
21862;SDS011;11096;51.338;12.524;2023-08-07T12:38:02;1.50;;;0.45;;
21862;SDS011;11096;51.338;12.524;2023-08-07T12:40:28;2.47;;;0.50;;
21862;SDS011;11096;51.338;12.524;2023-08-07T12:42:55;1.70;;;0.47;;
21862;SDS011;11096;51.338;12.524;2023-08-07T12:45:20;3.65;;;0.50;;
21862;SDS011;11096;51.338;12.524;2023-08-07T12:47:46;2.05;;;0.77;;
21862;SDS011;11096;51.338;12.524;2023-08-07T12:50:11;1.45;;;0.52;;
21862;SDS011;11096;51.338;12.524;2023-08-07T12:52:37;2.55;;;0.50;;
21862;SDS011;11096;51.338;12.524;2023-08-07T12:55:03;2.97;;;0.80;;
21862;SDS011;11096;51.338;12.524;2023-08-07T12:57:30;2.55;;;0.65;;
21862;SDS011;11096;51.338;12.524;2023-08-07T12:59:56;0.95;;;0.50;;
21862;SDS011;11096;51.338;12.524;2023-08-07T13:02:21;0.88;;;0.45;;
21862;SDS011;11096;51.338;12.524;2023-08-07T13:04:47;1.27;;;0.60;;
21862;SDS011;11096;51.338;12.524;2023-08-07T13:07:12;1.60;;;0.80;;
21862;SDS011;11096;51.338;12.524;2023-08-07T13:09:37;2.35;;;0.80;;
21862;SDS011;11096;51.338;12.524;2023-08-07T13:12:03;1.25;;;0.82;;
21862;SDS011;11096;51.338;12.524;2023-08-07T13:14:29;2.60;;;0.70;;
21862;SDS011;11096;51.338;12.524;2023-08-07T13:16:54;1.02;;;0.77;;
21862;SDS011;11096;51.338;12.524;2023-08-07T13:19:20;2.75;;;1.10;;
21862;SDS011;11096;51.338;12.524;2023-08-07T13:21:45;1.70;;;0.80;;
21862;SDS011;11096;51.338;12.524;2023-08-07T13:24:11;2.75;;;0.75;;
21862;SDS011;11096;51.338;12.524;2023-08-07T13:26:37;4.45;;;1.30;;
21862;SDS011;11096;51.338;12.524;2023-08-07T13:29:03;1.30;;;0.90;;
21862;SDS011;11096;51.338;12.524;2023-08-07T13:31:29;1.50;;;0.90;;
21862;SDS011;11096;51.338;12.524;2023-08-07T13:33:54;1.92;;;0.90;;
21862;SDS011;11096;51.338;12.524;2023-08-07T13:36:20;2.30;;;1.00;;
21862;SDS011;11096;51.338;12.524;2023-08-07T13:38:45;6.80;;;1.50;;
21862;SDS011;11096;51.338;12.524;2023-08-07T13:41:10;6.20;;;1.65;;
21862;SDS011;11096;51.338;12.524;2023-08-07T13:43:37;8.60;;;1.23;;
21862;SDS011;11096;51.338;12.524;2023-08-07T13:46:02;3.15;;;1.00;;
21862;SDS011;11096;51.338;12.524;2023-08-07T13:48:27;2.13;;;0.60;;
21862;SDS011;11096;51.338;12.524;2023-08-07T13:50:53;3.70;;;0.80;;
21862;SDS011;11096;51.338;12.524;2023-08-07T13:53:19;3.17;;;0.85;;
21862;SDS011;11096;51.338;12.524;2023-08-07T13:55:45;3.83;;;1.08;;
21862;SDS011;11096;51.338;12.524;2023-08-07T13:58:12;3.55;;;1.10;;
21862;SDS011;11096;51.338;12.524;2023-08-07T14:00:40;3.25;;;1.25;;
21862;SDS011;11096;51.338;12.524;2023-08-07T14:03:06;6.70;;;1.35;;
21862;SDS011;11096;51.338;12.524;2023-08-07T14:05:33;3.35;;;1.10;;
21862;SDS011;11096;51.338;12.524;2023-08-07T14:07:59;2.88;;;1.20;;
21862;SDS011;11096;51.338;12.524;2023-08-07T14:10:24;2.63;;;1.30;;
21862;SDS011;11096;51.338;12.524;2023-08-07T14:12:50;2.85;;;1.77;;
21862;SDS011;11096;51.338;12.524;2023-08-07T14:15:15;3.08;;;1.70;;
21862;SDS011;11096;51.338;12.524;2023-08-07T14:17:41;5.25;;;2.00;;
21862;SDS011;11096;51.338;12.524;2023-08-07T14:20:06;1.45;;;1.35;;
21862;SDS011;11096;51.338;12.524;2023-08-07T14:22:33;3.38;;;1.13;;
21862;SDS011;11096;51.338;12.524;2023-08-07T14:25:01;3.30;;;0.93;;
21862;SDS011;11096;51.338;12.524;2023-08-07T14:27:28;6.97;;;1.58;;
21862;SDS011;11096;51.338;12.524;2023-08-07T14:29:53;6.60;;;1.50;;
21862;SDS011;11096;51.338;12.524;2023-08-07T14:32:18;7.68;;;1.90;;
21862;SDS011;11096;51.338;12.524;2023-08-07T14:34:44;2.88;;;1.50;;
21862;SDS011;11096;51.338;12.524;2023-08-07T14:37:10;3.30;;;1.30;;
21862;SDS011;11096;51.338;12.524;2023-08-07T14:39:36;3.97;;;1.17;;
21862;SDS011;11096;51.338;12.524;2023-08-07T14:42:01;3.30;;;1.08;;
21862;SDS011;11096;51.338;12.524;2023-08-07T14:44:26;4.22;;;1.50;;